sensor_id;sensor_type;location;lat;lon;timestamp;temperature;humidity
10873;DHT22;34586;53.616;10.032;2023-02-18T00:00:26;6.90;35.20
10873;DHT22;34586;53.616;10.032;2023-02-18T00:02:52;7.00;30.80
10873;DHT22;34586;53.616;10.032;2023-02-18T00:05:18;7.00;21.90
10873;DHT22;34586;53.616;10.032;2023-02-18T00:07:44;7.00;33.00
10873;DHT22;34586;53.616;10.032;2023-02-18T00:10:14;7.00;26.30
10873;DHT22;34586;53.616;10.032;2023-02-18T00:12:40;7.00;14.40
10873;DHT22;34586;53.616;10.032;2023-02-18T00:15:06;7.10;13.90
10873;DHT22;34586;53.616;10.032;2023-02-18T00:17:32;7.20;1.00
10873;DHT22;34586;53.616;10.032;2023-02-18T00:19:58;7.20;1.00
10873;DHT22;34586;53.616;10.032;2023-02-18T00:22:23;7.20;1.00
10873;DHT22;34586;53.616;10.032;2023-02-18T00:24:49;7.20;1.00
10873;DHT22;34586;53.616;10.032;2023-02-18T00:27:15;7.20;1.00
10873;DHT22;34586;53.616;10.032;2023-02-18T00:29:41;7.20;1.00
10873;DHT22;34586;53.616;10.032;2023-02-18T00:32:07;7.20;1.00
10873;DHT22;34586;53.616;10.032;2023-02-18T00:34:32;7.20;11.50
10873;DHT22;34586;53.616;10.032;2023-02-18T00:36:58;7.20;1.00
10873;DHT22;34586;53.616;10.032;2023-02-18T00:39:23;7.20;1.00
10873;DHT22;34586;53.616;10.032;2023-02-18T00:41:49;7.10;9.20
10873;DHT22;34586;53.616;10.032;2023-02-18T00:44:15;7.10;11.20
10873;DHT22;34586;53.616;10.032;2023-02-18T00:46:40;7.10;1.00
10873;DHT22;34586;53.616;10.032;2023-02-18T00:49:07;7.20;1.00
10873;DHT22;34586;53.616;10.032;2023-02-18T00:51:33;7.10;1.00
10873;DHT22;34586;53.616;10.032;2023-02-18T00:53:59;7.10;1.00
10873;DHT22;34586;53.616;10.032;2023-02-18T00:56:25;7.10;1.00
10873;DHT22;34586;53.616;10.032;2023-02-18T00:58:50;7.10;1.00
10873;DHT22;34586;53.616;10.032;2023-02-18T01:01:17;7.20;1.00
10873;DHT22;34586;53.616;10.032;2023-02-18T01:03:44;7.10;1.00
10873;DHT22;34586;53.616;10.032;2023-02-18T01:06:10;7.20;1.00
10873;DHT22;34586;53.616;10.032;2023-02-18T01:08:37;7.20;1.00
10873;DHT22;34586;53.616;10.032;2023-02-18T01:11:04;7.20;1.00
10873;DHT22;34586;53.616;10.032;2023-02-18T01:13:30;7.10;1.00
10873;DHT22;34586;53.616;10.032;2023-02-18T01:15:56;7.10;1.00
10873;DHT22;34586;53.616;10.032;2023-02-18T01:18:25;7.20;1.00
10873;DHT22;34586;53.616;10.032;2023-02-18T01:20:50;7.10;1.00
10873;DHT22;34586;53.616;10.032;2023-02-18T01:23:16;7.00;1.00
10873;DHT22;34586;53.616;10.032;2023-02-18T01:25:42;7.00;1.00
10873;DHT22;34586;53.616;10.032;2023-02-18T01:28:10;7.00;1.00
10873;DHT22;34586;53.616;10.032;2023-02-18T01:30:38;7.10;1.00
10873;DHT22;34586;53.616;10.032;2023-02-18T01:33:03;7.10;1.00
10873;DHT22;34586;53.616;10.032;2023-02-18T01:35:29;7.10;1.00
10873;DHT22;34586;53.616;10.032;2023-02-18T01:37:55;7.10;1.00
10873;DHT22;34586;53.616;10.032;2023-02-18T01:40:23;7.00;4.20
10873;DHT22;34586;53.616;10.032;2023-02-18T01:42:49;7.00;11.60
10873;DHT22;34586;53.616;10.032;2023-02-18T01:48:04;6.90;33.30
10873;DHT22;34586;53.616;10.032;2023-02-18T01:50:33;6.90;37.40
10873;DHT22;34586;53.616;10.032;2023-02-18T01:52:59;6.80;51.90
10873;DHT22;34586;53.616;10.032;2023-02-18T01:55:25;6.90;49.20
10873;DHT22;34586;53.616;10.032;2023-02-18T01:57:51;6.90;46.70
10873;DHT22;34586;53.616;10.032;2023-02-18T02:00:18;6.80;80.00
10873;DHT22;34586;53.616;10.032;2023-02-18T02:02:49;6.80;51.90
10873;DHT22;34586;53.616;10.032;2023-02-18T02:05:16;6.90;41.20
10873;DHT22;34586;53.616;10.032;2023-02-18T02:07:42;6.90;44.50
10873;DHT22;34586;53.616;10.032;2023-02-18T02:10:10;6.80;49.20
10873;DHT22;34586;53.616;10.032;2023-02-18T02:27:08;6.90;70.70
10873;DHT22;34586;53.616;10.032;2023-02-18T02:35:18;6.90;53.50
10873;DHT22;34586;53.616;10.032;2023-02-18T02:38:02;6.80;39.20
10873;DHT22;34586;53.616;10.032;2023-02-18T02:41:01;6.90;47.40
10873;DHT22;34586;53.616;10.032;2023-02-18T02:46:17;6.80;40.90
10873;DHT22;34586;53.616;10.032;2023-02-18T02:49:07;6.80;24.00
10873;DHT22;34586;53.616;10.032;2023-02-18T02:51:53;6.80;25.70
10873;DHT22;34586;53.616;10.032;2023-02-18T02:54:26;6.90;28.60
10873;DHT22;34586;53.616;10.032;2023-02-18T02:59:32;6.80;21.40
10873;DHT22;34586;53.616;10.032;2023-02-18T03:15:56;6.90;1.00
10873;DHT22;34586;53.616;10.032;2023-02-18T03:23:55;7.00;7.70
10873;DHT22;34586;53.616;10.032;2023-02-18T03:26:24;7.00;1.00
10873;DHT22;34586;53.616;10.032;2023-02-18T03:28:53;7.00;1.00
10873;DHT22;34586;53.616;10.032;2023-02-18T03:31:24;7.10;1.00
10873;DHT22;34586;53.616;10.032;2023-02-18T03:33:56;7.00;1.00
10873;DHT22;34586;53.616;10.032;2023-02-18T03:36:23;7.00;1.00
10873;DHT22;34586;53.616;10.032;2023-02-18T03:38:55;6.60;1.00
10873;DHT22;34586;53.616;10.032;2023-02-18T03:41:23;7.10;1.00
10873;DHT22;34586;53.616;10.032;2023-02-18T03:43:53;7.10;1.00
10873;DHT22;34586;53.616;10.032;2023-02-18T03:46:20;7.10;1.00
10873;DHT22;34586;53.616;10.032;2023-02-18T03:48:46;7.10;1.00
10873;DHT22;34586;53.616;10.032;2023-02-18T03:51:12;7.10;1.00
10873;DHT22;34586;53.616;10.032;2023-02-18T03:53:37;7.10;1.00
10873;DHT22;34586;53.616;10.032;2023-02-18T03:56:03;7.10;1.00
10873;DHT22;34586;53.616;10.032;2023-02-18T03:58:29;7.20;1.00
10873;DHT22;34586;53.616;10.032;2023-02-18T04:00:54;7.20;1.00
10873;DHT22;34586;53.616;10.032;2023-02-18T04:03:20;7.20;1.00
10873;DHT22;34586;53.616;10.032;2023-02-18T04:05:45;7.20;1.00
10873;DHT22;34586;53.616;10.032;2023-02-18T04:08:12;7.20;1.00
10873;DHT22;34586;53.616;10.032;2023-02-18T04:10:38;7.20;1.00
10873;DHT22;34586;53.616;10.032;2023-02-18T04:13:03;7.20;1.00
10873;DHT22;34586;53.616;10.032;2023-02-18T04:15:29;7.20;1.00
10873;DHT22;34586;53.616;10.032;2023-02-18T04:17:55;7.20;1.00
10873;DHT22;34586;53.616;10.032;2023-02-18T04:20:21;7.20;1.00
10873;DHT22;34586;53.616;10.032;2023-02-18T04:22:47;7.20;1.00
10873;DHT22;34586;53.616;10.032;2023-02-18T04:25:13;7.20;1.00
10873;DHT22;34586;53.616;10.032;2023-02-18T04:27:38;7.20;4.50
10873;DHT22;34586;53.616;10.032;2023-02-18T04:30:04;7.20;19.50
10873;DHT22;34586;53.616;10.032;2023-02-18T04:32:30;7.10;12.70
10873;DHT22;34586;53.616;10.032;2023-02-18T04:34:56;7.00;53.30
10873;DHT22;34586;53.616;10.032;2023-02-18T04:37:21;7.00;78.20
10873;DHT22;34586;53.616;10.032;2023-02-18T04:39:47;7.10;61.50
10873;DHT22;34586;53.616;10.032;2023-02-18T04:42:13;7.00;82.50
10873;DHT22;34586;53.616;10.032;2023-02-18T04:44:38;7.00;80.00
10873;DHT22;34586;53.616;10.032;2023-02-18T04:47:05;6.90;87.70
10873;DHT22;34586;53.616;10.032;2023-02-18T04:49:31;6.90;95.40
10873;DHT22;34586;53.616;10.032;2023-02-18T04:51:57;6.80;99.90
10873;DHT22;34586;53.616;10.032;2023-02-18T04:54:22;6.80;93.40
10873;DHT22;34586;53.616;10.032;2023-02-18T04:56:48;6.80;99.90
10873;DHT22;34586;53.616;10.032;2023-02-18T04:59:14;6.80;99.90
10873;DHT22;34586;53.616;10.032;2023-02-18T05:01:40;6.80;99.90
10873;DHT22;34586;53.616;10.032;2023-02-18T05:04:06;6.80;99.90
10873;DHT22;34586;53.616;10.032;2023-02-18T05:06:31;6.80;99.90
10873;DHT22;34586;53.616;10.032;2023-02-18T05:08:57;6.90;99.90
10873;DHT22;34586;53.616;10.032;2023-02-18T05:11:23;6.80;99.90
10873;DHT22;34586;53.616;10.032;2023-02-18T05:13:48;6.90;99.90
10873;DHT22;34586;53.616;10.032;2023-02-18T05:16:14;6.90;99.90
10873;DHT22;34586;53.616;10.032;2023-02-18T05:18:39;6.90;99.90
10873;DHT22;34586;53.616;10.032;2023-02-18T05:21:05;6.80;99.90
10873;DHT22;34586;53.616;10.032;2023-02-18T05:23:31;6.80;99.90
10873;DHT22;34586;53.616;10.032;2023-02-18T05:25:57;6.80;99.90
10873;DHT22;34586;53.616;10.032;2023-02-18T05:28:23;6.80;99.90
10873;DHT22;34586;53.616;10.032;2023-02-18T05:30:48;6.80;99.90
10873;DHT22;34586;53.616;10.032;2023-02-18T05:33:14;6.80;99.90
10873;DHT22;34586;53.616;10.032;2023-02-18T05:35:39;6.80;99.90
10873;DHT22;34586;53.616;10.032;2023-02-18T05:38:05;6.80;99.90
10873;DHT22;34586;53.616;10.032;2023-02-18T05:40:31;6.80;99.90
10873;DHT22;34586;53.616;10.032;2023-02-18T05:42:56;6.80;99.90
10873;DHT22;34586;53.616;10.032;2023-02-18T05:45:22;6.70;99.90
10873;DHT22;34586;53.616;10.032;2023-02-18T05:47:47;6.70;99.90
10873;DHT22;34586;53.616;10.032;2023-02-18T05:50:13;6.70;99.90
10873;DHT22;34586;53.616;10.032;2023-02-18T05:52:39;6.60;99.90
10873;DHT22;34586;53.616;10.032;2023-02-18T05:55:04;6.60;99.90
10873;DHT22;34586;53.616;10.032;2023-02-18T05:57:30;6.60;99.90
10873;DHT22;34586;53.616;10.032;2023-02-18T05:59:56;6.60;99.90
10873;DHT22;34586;53.616;10.032;2023-02-18T06:02:21;6.60;99.90
10873;DHT22;34586;53.616;10.032;2023-02-18T06:04:47;6.60;99.90
10873;DHT22;34586;53.616;10.032;2023-02-18T06:07:13;6.60;99.90
10873;DHT22;34586;53.616;10.032;2023-02-18T06:09:38;6.60;99.90
10873;DHT22;34586;53.616;10.032;2023-02-18T06:12:04;6.60;99.90
10873;DHT22;34586;53.616;10.032;2023-02-18T06:14:30;6.50;99.90
10873;DHT22;34586;53.616;10.032;2023-02-18T06:16:56;6.60;99.90
10873;DHT22;34586;53.616;10.032;2023-02-18T06:19:21;6.70;99.90
10873;DHT22;34586;53.616;10.032;2023-02-18T06:21:47;6.50;99.90
10873;DHT22;34586;53.616;10.032;2023-02-18T06:24:12;6.50;99.90
10873;DHT22;34586;53.616;10.032;2023-02-18T06:26:38;6.50;99.90
10873;DHT22;34586;53.616;10.032;2023-02-18T06:29:04;6.40;99.90
10873;DHT22;34586;53.616;10.032;2023-02-18T06:31:29;6.40;99.90
10873;DHT22;34586;53.616;10.032;2023-02-18T06:33:55;6.40;99.90
10873;DHT22;34586;53.616;10.032;2023-02-18T06:36:21;6.30;99.90
10873;DHT22;34586;53.616;10.032;2023-02-18T06:38:46;6.30;99.90
10873;DHT22;34586;53.616;10.032;2023-02-18T06:41:12;6.30;99.90
10873;DHT22;34586;53.616;10.032;2023-02-18T06:43:38;6.30;99.90
10873;DHT22;34586;53.616;10.032;2023-02-18T06:46:04;6.30;99.90
10873;DHT22;34586;53.616;10.032;2023-02-18T06:48:30;6.30;99.90
10873;DHT22;34586;53.616;10.032;2023-02-18T06:50:57;6.30;99.90
10873;DHT22;34586;53.616;10.032;2023-02-18T06:53:22;6.30;99.90
10873;DHT22;34586;53.616;10.032;2023-02-18T06:55:48;6.40;99.90
10873;DHT22;34586;53.616;10.032;2023-02-18T06:58:14;6.40;99.90
10873;DHT22;34586;53.616;10.032;2023-02-18T07:00:41;6.40;99.90
10873;DHT22;34586;53.616;10.032;2023-02-18T07:03:07;6.40;99.90
10873;DHT22;34586;53.616;10.032;2023-02-18T07:05:33;6.40;99.90
10873;DHT22;34586;53.616;10.032;2023-02-18T07:07:58;6.40;99.90
10873;DHT22;34586;53.616;10.032;2023-02-18T07:10:25;6.40;99.90
10873;DHT22;34586;53.616;10.032;2023-02-18T07:12:51;6.50;99.90
10873;DHT22;34586;53.616;10.032;2023-02-18T07:15:16;6.50;99.90
10873;DHT22;34586;53.616;10.032;2023-02-18T07:17:42;6.50;99.90
10873;DHT22;34586;53.616;10.032;2023-02-18T07:20:08;6.50;99.90
10873;DHT22;34586;53.616;10.032;2023-02-18T07:22:34;6.50;99.90
10873;DHT22;34586;53.616;10.032;2023-02-18T07:24:59;6.50;99.90
10873;DHT22;34586;53.616;10.032;2023-02-18T07:27:25;6.50;99.90
10873;DHT22;34586;53.616;10.032;2023-02-18T07:29:51;6.60;99.90
10873;DHT22;34586;53.616;10.032;2023-02-18T07:32:17;6.60;99.90
10873;DHT22;34586;53.616;10.032;2023-02-18T07:34:43;6.60;99.90
10873;DHT22;34586;53.616;10.032;2023-02-18T07:37:09;6.60;99.90
10873;DHT22;34586;53.616;10.032;2023-02-18T07:39:39;6.60;99.90
10873;DHT22;34586;53.616;10.032;2023-02-18T07:42:05;6.60;99.90
10873;DHT22;34586;53.616;10.032;2023-02-18T07:44:31;6.70;99.90
10873;DHT22;34586;53.616;10.032;2023-02-18T07:46:57;6.80;99.90
10873;DHT22;34586;53.616;10.032;2023-02-18T07:49:22;6.70;99.90
10873;DHT22;34586;53.616;10.032;2023-02-18T07:51:49;6.70;99.90
10873;DHT22;34586;53.616;10.032;2023-02-18T07:54:15;6.70;99.90
10873;DHT22;34586;53.616;10.032;2023-02-18T07:56:40;6.80;99.90
10873;DHT22;34586;53.616;10.032;2023-02-18T07:59:08;6.80;99.90
10873;DHT22;34586;53.616;10.032;2023-02-18T08:01:34;6.80;99.90
10873;DHT22;34586;53.616;10.032;2023-02-18T08:03:59;6.90;99.90
10873;DHT22;34586;53.616;10.032;2023-02-18T08:06:29;6.90;99.90
10873;DHT22;34586;53.616;10.032;2023-02-18T08:08:55;6.90;99.90
10873;DHT22;34586;53.616;10.032;2023-02-18T08:11:21;6.90;99.90
10873;DHT22;34586;53.616;10.032;2023-02-18T08:13:47;7.00;99.90
10873;DHT22;34586;53.616;10.032;2023-02-18T08:16:14;7.00;99.90
10873;DHT22;34586;53.616;10.032;2023-02-18T08:18:40;7.00;99.90
10873;DHT22;34586;53.616;10.032;2023-02-18T08:21:05;7.00;99.90
10873;DHT22;34586;53.616;10.032;2023-02-18T08:23:31;7.00;99.90
10873;DHT22;34586;53.616;10.032;2023-02-18T08:25:56;7.00;99.90
10873;DHT22;34586;53.616;10.032;2023-02-18T08:28:23;7.00;99.90
10873;DHT22;34586;53.616;10.032;2023-02-18T08:30:52;7.00;99.90
10873;DHT22;34586;53.616;10.032;2023-02-18T08:33:18;7.10;99.90
10873;DHT22;34586;53.616;10.032;2023-02-18T08:35:45;7.10;99.90
10873;DHT22;34586;53.616;10.032;2023-02-18T08:38:11;7.10;99.90
10873;DHT22;34586;53.616;10.032;2023-02-18T08:40:36;7.00;99.90
10873;DHT22;34586;53.616;10.032;2023-02-18T08:43:02;7.00;99.90
10873;DHT22;34586;53.616;10.032;2023-02-18T08:45:27;7.00;99.90
10873;DHT22;34586;53.616;10.032;2023-02-18T08:47:53;7.00;99.90
10873;DHT22;34586;53.616;10.032;2023-02-18T08:50:19;7.00;99.90
10873;DHT22;34586;53.616;10.032;2023-02-18T08:52:46;7.10;99.90
10873;DHT22;34586;53.616;10.032;2023-02-18T08:55:12;7.10;99.90
10873;DHT22;34586;53.616;10.032;2023-02-18T08:57:37;7.10;99.90
10873;DHT22;34586;53.616;10.032;2023-02-18T09:00:03;7.10;99.90
10873;DHT22;34586;53.616;10.032;2023-02-18T09:02:30;7.10;99.90
10873;DHT22;34586;53.616;10.032;2023-02-18T09:04:56;7.10;99.90
10873;DHT22;34586;53.616;10.032;2023-02-18T09:07:21;7.20;99.90
10873;DHT22;34586;53.616;10.032;2023-02-18T09:09:47;7.10;99.90
10873;DHT22;34586;53.616;10.032;2023-02-18T09:12:12;7.10;99.90
10873;DHT22;34586;53.616;10.032;2023-02-18T09:14:38;7.10;99.90
10873;DHT22;34586;53.616;10.032;2023-02-18T09:17:03;7.20;99.90
10873;DHT22;34586;53.616;10.032;2023-02-18T09:19:29;7.20;99.90
10873;DHT22;34586;53.616;10.032;2023-02-18T09:21:55;7.20;99.90
10873;DHT22;34586;53.616;10.032;2023-02-18T09:24:21;7.20;99.90
10873;DHT22;34586;53.616;10.032;2023-02-18T09:26:49;7.20;99.90
10873;DHT22;34586;53.616;10.032;2023-02-18T09:29:15;7.20;99.90
10873;DHT22;34586;53.616;10.032;2023-02-18T09:31:40;7.20;99.90
10873;DHT22;34586;53.616;10.032;2023-02-18T09:34:06;7.20;99.90
10873;DHT22;34586;53.616;10.032;2023-02-18T09:36:32;7.30;99.90
10873;DHT22;34586;53.616;10.032;2023-02-18T09:38:58;7.30;99.90
10873;DHT22;34586;53.616;10.032;2023-02-18T09:41:42;7.30;99.90
10873;DHT22;34586;53.616;10.032;2023-02-18T09:44:24;7.40;99.90
10873;DHT22;34586;53.616;10.032;2023-02-18T09:49:26;7.40;99.90
10873;DHT22;34586;53.616;10.032;2023-02-18T09:51:54;7.40;99.90
10873;DHT22;34586;53.616;10.032;2023-02-18T09:54:20;7.50;99.90
10873;DHT22;34586;53.616;10.032;2023-02-18T09:56:47;7.60;99.90
10873;DHT22;34586;53.616;10.032;2023-02-18T09:59:18;7.50;99.90
10873;DHT22;34586;53.616;10.032;2023-02-18T10:01:48;7.50;99.90
10873;DHT22;34586;53.616;10.032;2023-02-18T10:04:19;7.50;99.90
10873;DHT22;34586;53.616;10.032;2023-02-18T10:06:50;7.50;99.90
10873;DHT22;34586;53.616;10.032;2023-02-18T10:09:27;7.50;99.90
10873;DHT22;34586;53.616;10.032;2023-02-18T10:12:09;7.50;99.90
10873;DHT22;34586;53.616;10.032;2023-02-18T10:14:37;7.50;99.90
10873;DHT22;34586;53.616;10.032;2023-02-18T10:17:03;7.40;99.90
10873;DHT22;34586;53.616;10.032;2023-02-18T10:19:36;7.40;99.90
10873;DHT22;34586;53.616;10.032;2023-02-18T10:22:04;7.50;99.90
10873;DHT22;34586;53.616;10.032;2023-02-18T10:24:34;7.40;99.90
10873;DHT22;34586;53.616;10.032;2023-02-18T10:27:04;7.50;99.90
10873;DHT22;34586;53.616;10.032;2023-02-18T10:29:30;7.50;99.90
10873;DHT22;34586;53.616;10.032;2023-02-18T10:32:15;7.50;99.90
10873;DHT22;34586;53.616;10.032;2023-02-18T10:34:45;7.60;99.90
10873;DHT22;34586;53.616;10.032;2023-02-18T10:50:25;7.80;99.90
10873;DHT22;34586;53.616;10.032;2023-02-18T10:52:57;8.00;99.90
10873;DHT22;34586;53.616;10.032;2023-02-18T10:55:41;7.90;99.90
10873;DHT22;34586;53.616;10.032;2023-02-18T10:58:29;7.90;99.90
10873;DHT22;34586;53.616;10.032;2023-02-18T11:00:56;7.90;99.90
10873;DHT22;34586;53.616;10.032;2023-02-18T11:06:15;8.00;99.90
10873;DHT22;34586;53.616;10.032;2023-02-18T11:08:44;8.00;99.90
10873;DHT22;34586;53.616;10.032;2023-02-18T11:11:19;8.20;99.90
10873;DHT22;34586;53.616;10.032;2023-02-18T11:13:52;8.10;99.90
10873;DHT22;34586;53.616;10.032;2023-02-18T11:16:24;8.00;99.90
10873;DHT22;34586;53.616;10.032;2023-02-18T11:19:00;8.00;99.90
10873;DHT22;34586;53.616;10.032;2023-02-18T11:21:36;8.00;99.90
10873;DHT22;34586;53.616;10.032;2023-02-18T11:24:15;8.00;99.90
10873;DHT22;34586;53.616;10.032;2023-02-18T11:26:41;8.00;99.90
10873;DHT22;34586;53.616;10.032;2023-02-18T11:29:20;8.00;99.90
10873;DHT22;34586;53.616;10.032;2023-02-18T11:31:49;8.20;99.90
10873;DHT22;34586;53.616;10.032;2023-02-18T11:34:19;8.30;99.90
10873;DHT22;34586;53.616;10.032;2023-02-18T11:36:47;8.40;99.90
10873;DHT22;34586;53.616;10.032;2023-02-18T11:41:52;8.40;99.90
10873;DHT22;34586;53.616;10.032;2023-02-18T11:44:31;8.50;99.90
10873;DHT22;34586;53.616;10.032;2023-02-18T11:47:01;8.40;99.90
10873;DHT22;34586;53.616;10.032;2023-02-18T11:49:29;8.50;99.90
10873;DHT22;34586;53.616;10.032;2023-02-18T11:54:33;8.50;99.90
10873;DHT22;34586;53.616;10.032;2023-02-18T11:57:11;8.60;99.90
10873;DHT22;34586;53.616;10.032;2023-02-18T11:59:39;8.60;99.90
10873;DHT22;34586;53.616;10.032;2023-02-18T12:02:25;8.60;99.90
10873;DHT22;34586;53.616;10.032;2023-02-18T12:07:38;8.70;99.90
10873;DHT22;34586;53.616;10.032;2023-02-18T12:10:42;8.80;99.90
10873;DHT22;34586;53.616;10.032;2023-02-18T12:13:49;8.90;99.90
10873;DHT22;34586;53.616;10.032;2023-02-18T12:22:00;9.40;99.90
10873;DHT22;34586;53.616;10.032;2023-02-18T12:24:57;9.40;99.90
10873;DHT22;34586;53.616;10.032;2023-02-18T12:27:53;9.50;99.90
10873;DHT22;34586;53.616;10.032;2023-02-18T12:30:56;9.60;99.90
10873;DHT22;34586;53.616;10.032;2023-02-18T12:44:35;9.50;99.90
10873;DHT22;34586;53.616;10.032;2023-02-18T12:49:49;9.50;99.90
10873;DHT22;34586;53.616;10.032;2023-02-18T12:57:48;9.60;99.90
10873;DHT22;34586;53.616;10.032;2023-02-18T13:00:44;9.50;99.90
10873;DHT22;34586;53.616;10.032;2023-02-18T13:14:22;9.40;99.90
10873;DHT22;34586;53.616;10.032;2023-02-18T13:16:51;9.40;99.90
10873;DHT22;34586;53.616;10.032;2023-02-18T13:19:33;9.40;99.90
10873;DHT22;34586;53.616;10.032;2023-02-18T13:22:04;9.40;99.90
10873;DHT22;34586;53.616;10.032;2023-02-18T13:24:36;9.20;99.90
10873;DHT22;34586;53.616;10.032;2023-02-18T13:27:08;9.30;99.90
10873;DHT22;34586;53.616;10.032;2023-02-18T13:29:48;9.20;99.90
10873;DHT22;34586;53.616;10.032;2023-02-18T13:32:28;9.20;99.90
10873;DHT22;34586;53.616;10.032;2023-02-18T13:35:16;9.30;99.90
10873;DHT22;34586;53.616;10.032;2023-02-18T13:41:06;9.20;99.90
10873;DHT22;34586;53.616;10.032;2023-02-18T13:43:34;9.20;99.90
10873;DHT22;34586;53.616;10.032;2023-02-18T13:48:35;9.10;99.90
10873;DHT22;34586;53.616;10.032;2023-02-18T13:51:05;9.10;99.90
10873;DHT22;34586;53.616;10.032;2023-02-18T13:53:41;9.00;99.90
10873;DHT22;34586;53.616;10.032;2023-02-18T13:56:30;8.90;99.90
10873;DHT22;34586;53.616;10.032;2023-02-18T13:59:25;8.80;99.90
10873;DHT22;34586;53.616;10.032;2023-02-18T14:01:54;8.70;99.90
10873;DHT22;34586;53.616;10.032;2023-02-18T14:10:02;8.50;99.90
10873;DHT22;34586;53.616;10.032;2023-02-18T14:28:56;7.80;99.90
10873;DHT22;34586;53.616;10.032;2023-02-18T14:31:46;7.80;99.90
10873;DHT22;34586;53.616;10.032;2023-02-18T14:40:18;7.50;99.90
10873;DHT22;34586;53.616;10.032;2023-02-18T14:43:18;7.50;99.90
10873;DHT22;34586;53.616;10.032;2023-02-18T14:46:09;7.60;99.90
10873;DHT22;34586;53.616;10.032;2023-02-18T14:51:39;7.60;99.90
10873;DHT22;34586;53.616;10.032;2023-02-18T14:54:12;7.60;99.90
10873;DHT22;34586;53.616;10.032;2023-02-18T14:56:59;7.60;99.90
10873;DHT22;34586;53.616;10.032;2023-02-18T14:59:28;7.70;99.90
10873;DHT22;34586;53.616;10.032;2023-02-18T15:01:55;7.60;99.90
10873;DHT22;34586;53.616;10.032;2023-02-18T15:04:23;7.60;99.90
10873;DHT22;34586;53.616;10.032;2023-02-18T15:07:01;7.70;99.90
10873;DHT22;34586;53.616;10.032;2023-02-18T15:09:27;7.70;99.90
10873;DHT22;34586;53.616;10.032;2023-02-18T15:12:03;7.70;99.90
10873;DHT22;34586;53.616;10.032;2023-02-18T15:14:35;7.60;99.90
10873;DHT22;34586;53.616;10.032;2023-02-18T15:17:01;7.40;99.90
10873;DHT22;34586;53.616;10.032;2023-02-18T15:19:34;7.40;99.90
10873;DHT22;34586;53.616;10.032;2023-02-18T15:22:02;7.30;99.90
10873;DHT22;34586;53.616;10.032;2023-02-18T15:24:36;7.30;99.90
10873;DHT22;34586;53.616;10.032;2023-02-18T15:27:13;7.20;99.90
10873;DHT22;34586;53.616;10.032;2023-02-18T15:29:39;7.00;99.90
10873;DHT22;34586;53.616;10.032;2023-02-18T15:32:19;7.00;99.90
10873;DHT22;34586;53.616;10.032;2023-02-18T15:37:25;7.10;99.90
10873;DHT22;34586;53.616;10.032;2023-02-18T15:39:51;7.00;99.90
10873;DHT22;34586;53.616;10.032;2023-02-18T15:42:35;7.00;99.90
10873;DHT22;34586;53.616;10.032;2023-02-18T15:47:43;6.90;99.90
10873;DHT22;34586;53.616;10.032;2023-02-18T15:50:21;6.80;99.90
10873;DHT22;34586;53.616;10.032;2023-02-18T15:52:48;6.80;99.90
10873;DHT22;34586;53.616;10.032;2023-02-18T15:57:45;6.90;99.90
10873;DHT22;34586;53.616;10.032;2023-02-18T16:00:36;6.90;99.90
10873;DHT22;34586;53.616;10.032;2023-02-18T16:03:12;6.90;99.90
10873;DHT22;34586;53.616;10.032;2023-02-18T16:05:39;6.90;99.90
10873;DHT22;34586;53.616;10.032;2023-02-18T16:08:26;6.90;99.90
10873;DHT22;34586;53.616;10.032;2023-02-18T16:10:56;6.90;99.90
10873;DHT22;34586;53.616;10.032;2023-02-18T16:13:24;6.90;99.90
10873;DHT22;34586;53.616;10.032;2023-02-18T16:15:51;6.80;99.90
10873;DHT22;34586;53.616;10.032;2023-02-18T16:18:38;6.70;99.90
10873;DHT22;34586;53.616;10.032;2023-02-18T16:21:23;6.60;99.90
10873;DHT22;34586;53.616;10.032;2023-02-18T16:24:02;6.60;99.90
10873;DHT22;34586;53.616;10.032;2023-02-18T16:26:30;6.60;99.90
10873;DHT22;34586;53.616;10.032;2023-02-18T16:29:02;6.60;99.90
10873;DHT22;34586;53.616;10.032;2023-02-18T16:31:35;6.50;99.90
10873;DHT22;34586;53.616;10.032;2023-02-18T16:34:01;6.50;99.90
10873;DHT22;34586;53.616;10.032;2023-02-18T16:36:30;6.40;99.90
10873;DHT22;34586;53.616;10.032;2023-02-18T16:38:57;6.90;99.90
10873;DHT22;34586;53.616;10.032;2023-02-18T16:41:23;6.40;99.90
10873;DHT22;34586;53.616;10.032;2023-02-18T16:43:52;6.50;99.90
10873;DHT22;34586;53.616;10.032;2023-02-18T16:46:22;6.40;99.90
10873;DHT22;34586;53.616;10.032;2023-02-18T16:48:49;6.30;99.90
10873;DHT22;34586;53.616;10.032;2023-02-18T16:51:31;6.20;99.90
10873;DHT22;34586;53.616;10.032;2023-02-18T16:53:57;6.20;99.90
10873;DHT22;34586;53.616;10.032;2023-02-18T16:56:26;6.20;99.90
10873;DHT22;34586;53.616;10.032;2023-02-18T16:59:01;6.10;99.90
10873;DHT22;34586;53.616;10.032;2023-02-18T17:01:33;6.00;99.90
10873;DHT22;34586;53.616;10.032;2023-02-18T17:04:00;5.90;99.90
10873;DHT22;34586;53.616;10.032;2023-02-18T17:06:30;5.90;99.90
10873;DHT22;34586;53.616;10.032;2023-02-18T17:08:57;5.80;99.90
10873;DHT22;34586;53.616;10.032;2023-02-18T17:11:32;5.80;99.90
10873;DHT22;34586;53.616;10.032;2023-02-18T17:13:59;5.80;99.90
10873;DHT22;34586;53.616;10.032;2023-02-18T17:16:29;5.80;99.90
10873;DHT22;34586;53.616;10.032;2023-02-18T17:18:57;5.90;99.90
10873;DHT22;34586;53.616;10.032;2023-02-18T17:21:24;5.90;99.90
10873;DHT22;34586;53.616;10.032;2023-02-18T17:23:51;6.00;99.90
10873;DHT22;34586;53.616;10.032;2023-02-18T17:26:20;6.00;99.90
10873;DHT22;34586;53.616;10.032;2023-02-18T17:28:53;6.00;99.90
10873;DHT22;34586;53.616;10.032;2023-02-18T17:31:22;6.00;99.90
10873;DHT22;34586;53.616;10.032;2023-02-18T17:33:54;6.10;99.90
10873;DHT22;34586;53.616;10.032;2023-02-18T17:36:21;6.10;99.90
10873;DHT22;34586;53.616;10.032;2023-02-18T17:38:51;6.10;99.90
10873;DHT22;34586;53.616;10.032;2023-02-18T17:41:20;6.10;99.90
10873;DHT22;34586;53.616;10.032;2023-02-18T17:43:46;6.10;99.90
10873;DHT22;34586;53.616;10.032;2023-02-18T17:46:16;6.10;99.90
10873;DHT22;34586;53.616;10.032;2023-02-18T17:48:43;6.10;99.90
10873;DHT22;34586;53.616;10.032;2023-02-18T17:51:26;6.10;99.90
10873;DHT22;34586;53.616;10.032;2023-02-18T17:53:54;6.10;99.90
10873;DHT22;34586;53.616;10.032;2023-02-18T17:56:20;6.10;99.90
10873;DHT22;34586;53.616;10.032;2023-02-18T17:58:46;6.10;99.90
10873;DHT22;34586;53.616;10.032;2023-02-18T18:01:13;6.00;99.90
10873;DHT22;34586;53.616;10.032;2023-02-18T18:03:38;6.00;99.90
10873;DHT22;34586;53.616;10.032;2023-02-18T18:06:09;6.00;99.90
10873;DHT22;34586;53.616;10.032;2023-02-18T18:08:38;5.90;99.90
10873;DHT22;34586;53.616;10.032;2023-02-18T18:11:04;5.90;99.90
10873;DHT22;34586;53.616;10.032;2023-02-18T18:13:31;5.90;99.90
10873;DHT22;34586;53.616;10.032;2023-02-18T18:15:57;5.80;99.90
10873;DHT22;34586;53.616;10.032;2023-02-18T18:18:22;5.80;99.90
10873;DHT22;34586;53.616;10.032;2023-02-18T18:20:56;5.80;99.90